createdAt,value
2019-05-25T00:02:25.033Z,99.90
2019-05-25T00:04:54.191Z,99.90
2019-05-25T00:07:23.678Z,99.90
2019-05-25T00:09:52.838Z,99.90
2019-05-25T00:12:22.089Z,99.90
2019-05-25T00:14:51.598Z,99.90
2019-05-25T00:17:20.847Z,99.90
2019-05-25T00:19:50.019Z,99.90
2019-05-25T00:22:19.247Z,99.90
2019-05-25T00:24:48.400Z,99.90
2019-05-25T00:27:17.655Z,99.90
2019-05-25T00:29:47.098Z,99.90
2019-05-25T00:32:16.302Z,99.90
2019-05-25T00:34:45.813Z,99.90
2019-05-25T00:37:15.018Z,99.90
2019-05-25T00:39:44.288Z,99.90
2019-05-25T00:42:13.426Z,99.90
2019-05-25T00:44:42.598Z,99.90
2019-05-25T00:47:11.719Z,99.90
2019-05-25T00:49:40.950Z,99.90
2019-05-25T00:52:10.107Z,99.90
2019-05-25T00:54:39.253Z,99.90
2019-05-25T00:57:08.416Z,99.90
2019-05-25T00:59:37.842Z,99.90
2019-05-25T01:02:07.147Z,99.90
2019-05-25T01:04:36.354Z,99.90
2019-05-25T01:07:05.597Z,99.90
2019-05-25T01:09:34.814Z,99.90
2019-05-25T01:12:04.092Z,99.90
2019-05-25T01:14:33.222Z,99.90
2019-05-25T01:17:02.395Z,99.90
2019-05-25T01:19:32.302Z,99.90
2019-05-25T01:22:01.538Z,99.90
2019-05-25T01:24:43.165Z,99.90
2019-05-25T01:27:01.541Z,99.90
2019-05-25T01:29:30.669Z,99.90
2019-05-25T01:32:00.167Z,99.90
2019-05-25T01:34:29.326Z,99.90
2019-05-25T01:36:58.621Z,99.90
2019-05-25T01:39:27.799Z,99.90
2019-05-25T01:41:56.954Z,99.90
2019-05-25T01:44:26.118Z,99.90
2019-05-25T01:46:55.386Z,99.90
2019-05-25T01:49:24.852Z,99.90
2019-05-25T01:51:54.176Z,99.90
2019-05-25T01:54:23.490Z,99.90
2019-05-25T01:56:52.772Z,99.90
2019-05-25T01:59:21.925Z,99.90
2019-05-25T02:01:51.159Z,99.90
2019-05-25T02:04:20.677Z,99.90
2019-05-25T02:06:49.915Z,99.90
2019-05-25T02:09:19.174Z,99.90
2019-05-25T02:11:48.430Z,99.90
2019-05-25T02:14:17.911Z,99.90
2019-05-25T02:16:47.083Z,99.90
2019-05-25T02:19:16.265Z,99.90
2019-05-25T02:21:45.437Z,99.90
2019-05-25T02:24:14.720Z,99.90
2019-05-25T02:26:44.018Z,99.90
2019-05-25T02:29:13.542Z,99.90
2019-05-25T02:31:42.833Z,99.90
2019-05-25T02:34:11.997Z,99.90
2019-05-25T02:36:41.168Z,99.90
2019-05-25T02:39:10.713Z,99.90
2019-05-25T02:41:39.977Z,99.90
2019-05-25T02:44:09.271Z,99.90
2019-05-25T02:46:38.515Z,99.90
2019-05-25T02:49:07.763Z,99.90
2019-05-25T02:51:37.028Z,99.90
2019-05-25T02:54:06.222Z,99.90
2019-05-25T02:56:35.620Z,99.90
2019-05-25T02:59:05.129Z,99.90
2019-05-25T03:01:34.399Z,99.90
2019-05-25T03:04:03.779Z,99.90
2019-05-25T03:06:33.965Z,99.90
2019-05-25T03:09:05.708Z,99.90
2019-05-25T03:11:35.651Z,99.90
2019-05-25T03:14:05.413Z,99.90
2019-05-25T03:16:34.977Z,99.90
2019-05-25T03:19:04.250Z,99.90
2019-05-25T03:21:33.512Z,99.90
2019-05-25T03:24:02.752Z,99.90
2019-05-25T03:26:32.036Z,99.90
2019-05-25T03:29:01.556Z,99.90
2019-05-25T03:31:30.835Z,99.90
2019-05-25T03:33:59.983Z,99.90
2019-05-25T03:36:29.188Z,99.90
2019-05-25T03:38:58.442Z,99.90
2019-05-25T03:41:27.624Z,99.90
2019-05-25T03:43:56.854Z,99.90
2019-05-25T03:46:26.119Z,99.90
2019-05-25T03:48:55.275Z,99.90
2019-05-25T03:51:24.543Z,99.90
2019-05-25T03:53:53.785Z,99.90
2019-05-25T03:56:23.069Z,99.90
2019-05-25T03:58:52.324Z,99.90
2019-05-25T04:01:21.576Z,99.90
2019-05-25T04:03:50.803Z,99.90
2019-05-25T04:06:20.249Z,99.90
2019-05-25T04:08:49.565Z,99.90
2019-05-25T04:11:18.896Z,99.90
2019-05-25T04:13:48.075Z,99.90
2019-05-25T04:16:17.574Z,99.90
2019-05-25T04:18:46.752Z,99.90
2019-05-25T04:21:16.320Z,99.90
2019-05-25T04:23:45.537Z,99.90
2019-05-25T04:26:22.616Z,99.90
2019-05-25T04:28:45.682Z,99.90
2019-05-25T04:31:15.292Z,99.90
2019-05-25T04:33:44.765Z,99.90
2019-05-25T04:36:13.948Z,99.90
2019-05-25T04:38:43.236Z,99.90
2019-05-25T04:41:12.448Z,99.90
2019-05-25T04:43:41.713Z,99.90
2019-05-25T04:46:10.969Z,99.90
2019-05-25T04:48:40.215Z,99.90
2019-05-25T04:51:09.595Z,99.90
2019-05-25T04:53:38.825Z,99.90
2019-05-25T04:56:08.189Z,99.90
2019-05-25T04:58:37.429Z,99.90
2019-05-25T05:01:06.633Z,99.90
2019-05-25T05:03:36.064Z,99.90
2019-05-25T05:06:05.774Z,99.90
2019-05-25T05:08:35.806Z,99.90
2019-05-25T05:11:05.477Z,99.90
2019-05-25T05:13:34.674Z,99.90
2019-05-25T05:16:04.213Z,99.90
2019-05-25T05:18:33.414Z,99.90
2019-05-25T05:21:02.742Z,99.90
2019-05-25T05:23:31.900Z,99.90
2019-05-25T05:26:01.160Z,99.90
2019-05-25T05:28:30.611Z,99.90
2019-05-25T05:30:59.805Z,99.90
2019-05-25T05:33:29.055Z,99.90
2019-05-25T05:35:59.450Z,99.90
2019-05-25T05:38:30.114Z,99.90
2019-05-25T05:41:00.310Z,99.90
2019-05-25T05:43:31.959Z,99.90
2019-05-25T05:46:02.665Z,99.90
2019-05-25T05:48:34.695Z,99.90
2019-05-25T05:51:05.630Z,99.90
2019-05-25T05:53:36.671Z,99.90
2019-05-25T05:56:05.974Z,99.90
2019-05-25T05:58:35.270Z,99.90
2019-05-25T06:01:04.705Z,99.90
2019-05-25T06:03:33.941Z,99.90
2019-05-25T06:06:03.195Z,99.90
2019-05-25T06:08:32.955Z,99.90
2019-05-25T06:11:02.142Z,99.90
2019-05-25T06:13:31.650Z,99.90
2019-05-25T06:16:00.863Z,99.90
2019-05-25T06:18:30.096Z,99.90
2019-05-25T06:20:59.276Z,99.90
2019-05-25T06:23:28.475Z,99.90
2019-05-25T06:25:57.709Z,99.90
2019-05-25T06:28:26.875Z,99.90
2019-05-25T06:30:56.041Z,99.90
2019-05-25T06:33:25.426Z,99.90
2019-05-25T06:35:54.660Z,99.90
2019-05-25T06:38:24.080Z,99.90
2019-05-25T06:40:53.322Z,99.90
2019-05-25T06:43:23.007Z,99.90
2019-05-25T06:45:52.289Z,99.90
2019-05-25T06:48:21.599Z,99.90
2019-05-25T06:50:50.832Z,99.90
2019-05-25T06:53:20.313Z,99.90
2019-05-25T06:55:49.471Z,99.90
2019-05-25T06:58:18.749Z,99.90
2019-05-25T07:00:48.187Z,99.90
2019-05-25T07:03:17.446Z,99.90
2019-05-25T07:05:46.733Z,99.90
2019-05-25T07:08:15.992Z,99.90
2019-05-25T07:10:45.164Z,99.90
2019-05-25T07:13:14.640Z,99.90
2019-05-25T07:15:43.927Z,99.90
2019-05-25T07:18:13.184Z,99.90
2019-05-25T07:20:42.461Z,99.90
2019-05-25T07:23:11.933Z,99.90
2019-05-25T07:25:41.487Z,99.90
2019-05-25T07:28:10.806Z,99.90
2019-05-25T07:30:40.031Z,99.90
2019-05-25T07:33:09.313Z,99.90
2019-05-25T07:35:38.594Z,99.90
2019-05-25T07:38:07.905Z,99.90
2019-05-25T07:40:37.257Z,99.90
2019-05-25T07:43:06.531Z,99.90
2019-05-25T07:45:38.896Z,99.90
2019-05-25T07:48:08.933Z,99.90
2019-05-25T07:50:38.244Z,99.90
2019-05-25T07:53:07.452Z,99.90
2019-05-25T07:55:36.787Z,99.90
2019-05-25T07:58:16.847Z,99.90
2019-05-25T08:00:36.900Z,99.90
2019-05-25T08:03:06.220Z,99.90
2019-05-25T08:05:35.590Z,99.90
2019-05-25T08:08:05.593Z,99.90
2019-05-25T08:10:34.989Z,99.90
2019-05-25T08:13:04.873Z,99.90
2019-05-25T08:15:34.302Z,99.90
2019-05-25T08:18:03.741Z,99.90
2019-05-25T08:20:32.924Z,99.90
2019-05-25T08:23:02.090Z,99.90
2019-05-25T08:25:31.398Z,99.90
2019-05-25T08:28:00.725Z,99.90
2019-05-25T08:30:30.108Z,99.90
2019-05-25T08:32:59.444Z,99.90
2019-05-25T08:35:28.875Z,99.90
2019-05-25T08:37:58.210Z,99.90
2019-05-25T08:40:27.549Z,99.90
2019-05-25T08:42:56.793Z,99.90
2019-05-25T08:45:26.266Z,99.90
2019-05-25T08:47:57.213Z,99.90
2019-05-25T08:50:37.672Z,99.90
2019-05-25T08:52:58.179Z,99.90
2019-05-25T08:55:27.585Z,99.90
2019-05-25T08:57:56.906Z,99.90
2019-05-25T09:00:26.533Z,99.90
2019-05-25T09:02:55.707Z,99.90
2019-05-25T09:05:25.322Z,99.90
2019-05-25T09:07:54.557Z,99.90
2019-05-25T09:10:24.070Z,99.90
2019-05-25T09:12:53.497Z,99.90
2019-05-25T09:15:22.774Z,99.90
2019-05-25T09:17:52.529Z,99.90
2019-05-25T09:20:22.019Z,99.90
2019-05-25T09:22:51.326Z,99.90
2019-05-25T09:25:20.519Z,99.90
2019-05-25T09:27:49.777Z,99.90
2019-05-25T09:30:19.428Z,99.90
2019-05-25T09:32:48.804Z,99.90
2019-05-25T09:35:18.250Z,99.90
2019-05-25T09:37:47.537Z,99.90
2019-05-25T09:40:17.087Z,99.90
2019-05-25T09:42:46.790Z,99.90
2019-05-25T09:45:16.245Z,99.90
2019-05-25T09:47:45.433Z,99.90
2019-05-25T09:50:15.954Z,99.90
2019-05-25T09:52:45.209Z,99.90
2019-05-25T09:55:14.725Z,99.90
2019-05-25T09:57:44.400Z,99.90
2019-05-25T10:00:14.299Z,99.90
2019-05-25T10:02:44.070Z,99.90
2019-05-25T10:05:14.184Z,99.90
2019-05-25T10:07:43.863Z,99.90
2019-05-25T10:10:13.353Z,99.90
2019-05-25T10:12:42.930Z,99.90
2019-05-25T10:15:12.497Z,99.90
2019-05-25T10:17:41.798Z,99.90
2019-05-25T10:20:11.264Z,99.90
2019-05-25T10:22:40.523Z,99.90
2019-05-25T10:25:09.991Z,99.90
2019-05-25T10:27:39.435Z,99.90
2019-05-25T10:30:09.988Z,99.90
2019-05-25T10:32:39.329Z,99.90
2019-05-25T10:35:09.219Z,99.90
2019-05-25T10:37:38.553Z,99.90
2019-05-25T10:40:08.190Z,99.90
2019-05-25T10:42:37.461Z,99.90
2019-05-25T10:45:06.912Z,99.90
2019-05-25T10:47:36.563Z,99.90
2019-05-25T10:50:06.747Z,99.90
2019-05-25T10:52:36.001Z,99.90
2019-05-25T10:55:05.496Z,99.90
2019-05-25T10:57:34.791Z,99.90
2019-05-25T11:00:04.458Z,99.90
2019-05-25T11:02:33.808Z,99.90
2019-05-25T11:05:02.981Z,99.90
2019-05-25T11:07:32.265Z,99.90
2019-05-25T11:10:01.847Z,99.90
2019-05-25T11:12:31.262Z,99.90
2019-05-25T11:15:00.534Z,99.90
2019-05-25T11:17:30.005Z,99.90
2019-05-25T11:19:59.295Z,99.90
2019-05-25T11:22:28.786Z,99.90
2019-05-25T11:24:58.123Z,99.90
2019-05-25T11:27:27.608Z,99.90
2019-05-25T11:30:08.502Z,99.90
2019-05-25T11:32:27.945Z,99.90
2019-05-25T11:34:57.237Z,99.90
2019-05-25T11:37:26.549Z,99.90
2019-05-25T11:39:55.947Z,99.90
2019-05-25T11:42:25.256Z,99.90
2019-05-25T11:44:54.504Z,99.90
2019-05-25T11:47:23.897Z,99.90
2019-05-25T11:49:54.151Z,99.90
2019-05-25T11:52:23.336Z,99.90
2019-05-25T11:54:52.705Z,99.90
2019-05-25T11:57:22.074Z,98.30
2019-05-25T11:59:51.999Z,97.30
2019-05-25T12:02:21.741Z,97.60
2019-05-25T12:04:51.037Z,96.20
2019-05-25T12:07:20.968Z,94.80
2019-05-25T12:09:50.260Z,93.70
2019-05-25T12:12:19.938Z,93.80
2019-05-25T12:14:49.628Z,92.80
2019-05-25T12:17:20.567Z,92.80
2019-05-25T12:19:49.918Z,93.60
2019-05-25T12:22:19.722Z,94.00
2019-05-25T12:24:49.146Z,93.60
2019-05-25T12:27:18.398Z,92.00
2019-05-25T12:29:47.618Z,91.30
2019-05-25T12:32:16.945Z,90.80
2019-05-25T12:34:46.413Z,90.50
2019-05-25T12:37:15.886Z,89.20
2019-05-25T12:39:45.368Z,88.90
2019-05-25T12:42:14.888Z,89.70
2019-05-25T12:44:44.099Z,88.60
2019-05-25T12:47:13.330Z,86.50
2019-05-25T12:49:50.597Z,84.30
2019-05-25T12:52:13.520Z,84.30
2019-05-25T12:54:42.773Z,85.90
2019-05-25T12:57:12.119Z,84.90
2019-05-25T12:59:41.589Z,80.50
2019-05-25T13:02:10.870Z,78.50
2019-05-25T13:04:40.170Z,77.00
2019-05-25T13:07:09.496Z,77.60
2019-05-25T13:09:38.778Z,74.50
2019-05-25T13:12:07.954Z,73.40
2019-05-25T13:14:37.152Z,70.10
2019-05-25T13:17:06.377Z,69.90
2019-05-25T13:19:36.009Z,66.00
2019-05-25T13:22:05.417Z,65.30
2019-05-25T13:24:34.630Z,65.20
2019-05-25T13:27:03.942Z,64.80
2019-05-25T13:29:33.133Z,63.30
2019-05-25T13:32:02.424Z,63.90
2019-05-25T13:34:31.668Z,63.70
2019-05-25T13:37:01.828Z,63.20
2019-05-25T13:39:31.863Z,63.00
2019-05-25T13:42:01.211Z,61.10
2019-05-25T13:44:31.095Z,59.20
2019-05-25T13:47:00.271Z,59.20
2019-05-25T13:49:29.449Z,59.30
2019-05-25T13:51:58.644Z,59.60
2019-05-25T13:54:27.930Z,59.10
2019-05-25T13:56:57.122Z,58.00
2019-05-25T13:59:26.399Z,58.30
2019-05-25T14:01:55.598Z,58.20
2019-05-25T14:04:24.892Z,57.00
2019-05-25T14:06:54.083Z,57.30
2019-05-25T14:09:23.523Z,56.80
2019-05-25T14:11:52.833Z,58.10
2019-05-25T14:14:24.330Z,56.90
2019-05-25T14:16:53.177Z,58.90
2019-05-25T14:19:22.377Z,60.50
2019-05-25T14:21:51.662Z,60.90
2019-05-25T14:24:20.819Z,60.00
2019-05-25T14:26:50.067Z,61.60
2019-05-25T14:29:19.312Z,62.30
2019-05-25T14:31:48.810Z,61.60
2019-05-25T14:34:18.113Z,60.40
2019-05-25T14:36:47.604Z,60.80
2019-05-25T14:39:16.786Z,60.40
2019-05-25T14:41:46.360Z,60.50
2019-05-25T14:44:15.528Z,57.80
2019-05-25T14:46:44.983Z,57.60
2019-05-25T14:49:14.335Z,57.20
2019-05-25T14:51:44.939Z,56.50
2019-05-25T14:54:14.163Z,56.30
2019-05-25T14:56:43.964Z,55.30
2019-05-25T14:59:13.179Z,55.10
2019-05-25T15:01:42.521Z,53.10
2019-05-25T15:04:12.233Z,53.50
2019-05-25T15:06:41.571Z,55.10
2019-05-25T15:09:10.902Z,56.80
2019-05-25T15:11:40.445Z,57.10
2019-05-25T15:14:09.690Z,58.30
2019-05-25T15:16:39.166Z,60.00
2019-05-25T15:19:08.469Z,61.00
2019-05-25T15:21:38.127Z,62.00
2019-05-25T15:24:07.491Z,61.80
2019-05-25T15:26:37.493Z,62.60
2019-05-25T15:29:06.747Z,62.10
2019-05-25T15:31:37.209Z,61.10
2019-05-25T15:34:06.830Z,59.60
2019-05-25T15:36:36.121Z,56.40
2019-05-25T15:39:07.364Z,56.20
2019-05-25T15:41:36.681Z,55.50
2019-05-25T15:44:06.561Z,53.10
2019-05-25T15:46:35.962Z,53.60
2019-05-25T15:49:05.231Z,51.60
2019-05-25T15:51:34.446Z,51.40
2019-05-25T15:54:03.716Z,50.40
2019-05-25T15:56:33.970Z,52.00
2019-05-25T15:59:04.027Z,53.90
2019-05-25T16:01:34.256Z,53.30
2019-05-25T16:04:04.505Z,53.20
2019-05-25T16:06:34.754Z,53.60
2019-05-25T16:09:05.324Z,53.80
2019-05-25T16:11:34.774Z,56.10
2019-05-25T16:14:07.420Z,57.90
2019-05-25T16:16:38.080Z,54.70
2019-05-25T16:19:07.409Z,53.60
2019-05-25T16:21:37.178Z,53.00
2019-05-25T16:24:08.204Z,53.50
2019-05-25T16:26:46.020Z,53.00
2019-05-25T16:29:09.287Z,52.50
2019-05-25T16:31:39.073Z,52.60
2019-05-25T16:34:08.847Z,51.80
2019-05-25T16:36:38.734Z,53.10
2019-05-25T16:39:08.838Z,51.60
2019-05-25T16:41:38.060Z,49.50
2019-05-25T16:44:07.597Z,50.20
2019-05-25T16:46:37.174Z,51.10
2019-05-25T16:49:07.068Z,50.50
2019-05-25T16:51:36.741Z,49.80
2019-05-25T16:54:06.717Z,49.40
2019-05-25T16:56:36.231Z,48.60
2019-05-25T16:59:06.841Z,48.40
2019-05-25T17:01:47.740Z,51.70
2019-05-25T17:04:07.507Z,55.10
2019-05-25T17:06:39.647Z,57.50
2019-05-25T17:09:09.323Z,58.50
2019-05-25T17:11:39.485Z,57.00
2019-05-25T17:14:09.194Z,59.10
2019-05-25T17:16:38.794Z,58.90
2019-05-25T17:19:08.416Z,59.70
2019-05-25T17:21:38.576Z,59.60
2019-05-25T17:24:08.546Z,60.40
2019-05-25T17:26:38.168Z,60.60
2019-05-25T17:29:07.723Z,62.10
2019-05-25T17:31:37.628Z,63.20
2019-05-25T17:34:10.170Z,64.00
2019-05-25T17:36:40.457Z,63.00
2019-05-25T17:39:10.248Z,59.70
2019-05-25T17:41:40.269Z,60.60
2019-05-25T17:44:12.365Z,61.50
2019-05-25T17:46:41.981Z,61.60
2019-05-25T17:49:11.436Z,62.00
2019-05-25T17:51:41.147Z,64.40
2019-05-25T17:54:13.393Z,65.50
2019-05-25T17:56:43.303Z,66.00
2019-05-25T17:59:13.420Z,66.60
2019-05-25T18:01:44.168Z,67.80
2019-05-25T18:04:14.406Z,68.10
2019-05-25T18:06:44.513Z,69.20
2019-05-25T18:09:19.533Z,69.10
2019-05-25T18:11:48.889Z,68.90
2019-05-25T18:14:18.476Z,69.40
2019-05-25T18:16:48.051Z,70.20
2019-05-25T18:19:17.580Z,71.30
2019-05-25T18:21:47.062Z,70.70
2019-05-25T18:24:16.811Z,70.70
2019-05-25T18:26:46.610Z,72.20
2019-05-25T18:29:16.054Z,72.20
2019-05-25T18:31:45.651Z,70.00
2019-05-25T18:34:22.185Z,67.70
2019-05-25T18:36:46.381Z,67.80
2019-05-25T18:39:15.771Z,71.10
2019-05-25T18:41:45.119Z,72.80
2019-05-25T18:44:14.453Z,74.30
2019-05-25T18:46:43.937Z,75.10
2019-05-25T18:49:13.430Z,75.70
2019-05-25T18:51:42.999Z,76.30
2019-05-25T18:54:12.381Z,77.00
2019-05-25T18:56:42.680Z,77.70
2019-05-25T18:59:12.112Z,78.50
2019-05-25T19:01:41.932Z,78.70
2019-05-25T19:04:11.301Z,79.40
2019-05-25T19:06:40.721Z,79.60
2019-05-25T19:09:11.692Z,80.30
2019-05-25T19:11:41.434Z,80.40
2019-05-25T19:14:10.783Z,80.60
2019-05-25T19:16:40.543Z,81.40
2019-05-25T19:19:09.807Z,83.00
2019-05-25T19:21:39.596Z,84.70
2019-05-25T19:24:09.045Z,84.40
2019-05-25T19:26:38.709Z,85.40
2019-05-25T19:29:07.900Z,86.00
2019-05-25T19:31:37.334Z,86.90
2019-05-25T19:34:06.637Z,87.90
2019-05-25T19:36:36.021Z,88.00
2019-05-25T19:39:08.539Z,88.70
2019-05-25T19:41:38.112Z,89.70
2019-05-25T19:44:07.491Z,90.30
2019-05-25T19:46:37.030Z,90.70
2019-05-25T19:49:06.407Z,91.10
2019-05-25T19:51:36.264Z,91.50
2019-05-25T19:54:05.804Z,92.10
2019-05-25T19:56:35.495Z,92.90
2019-05-25T19:59:04.783Z,93.60
2019-05-25T20:01:34.157Z,94.00
2019-05-25T20:04:03.803Z,94.60
2019-05-25T20:06:33.504Z,95.00
2019-05-25T20:09:03.261Z,95.80
2019-05-25T20:11:32.596Z,95.60
2019-05-25T20:14:01.920Z,96.10
2019-05-25T20:16:31.231Z,96.30
2019-05-25T20:19:00.467Z,96.90
2019-05-25T20:21:29.837Z,97.00
2019-05-25T20:23:59.418Z,97.10
2019-05-25T20:26:28.702Z,97.40
2019-05-25T20:28:58.027Z,98.10
2019-05-25T20:31:27.613Z,98.10
2019-05-25T20:33:56.817Z,98.10
2019-05-25T20:36:26.093Z,99.00
2019-05-25T20:38:55.568Z,99.60
2019-05-25T20:41:25.041Z,99.80
2019-05-25T20:43:54.281Z,99.90
2019-05-25T20:46:23.493Z,99.90
2019-05-25T20:48:52.765Z,99.90
2019-05-25T20:51:22.073Z,99.90
2019-05-25T20:53:51.305Z,99.90
2019-05-25T20:56:20.531Z,99.90
2019-05-25T20:58:49.834Z,99.90
2019-05-25T21:01:19.199Z,99.90
2019-05-25T21:03:48.584Z,99.90
2019-05-25T21:06:18.062Z,99.90
2019-05-25T21:08:47.769Z,99.90
2019-05-25T21:11:17.360Z,99.90
2019-05-25T21:13:47.046Z,99.90
2019-05-25T21:16:16.661Z,99.90
2019-05-25T21:18:46.332Z,99.90
2019-05-25T21:21:15.997Z,99.90
2019-05-25T21:23:45.281Z,99.90
2019-05-25T21:26:14.742Z,99.90
2019-05-25T21:28:44.369Z,99.90
2019-05-25T21:31:13.945Z,99.90
2019-05-25T21:33:43.173Z,99.90
2019-05-25T21:36:12.459Z,99.90
2019-05-25T21:38:42.071Z,99.90
2019-05-25T21:41:11.287Z,99.90
2019-05-25T21:43:40.551Z,99.90
2019-05-25T21:46:09.805Z,99.90
2019-05-25T21:48:39.158Z,99.90
2019-05-25T21:51:08.766Z,99.90
2019-05-25T21:53:39.626Z,99.90
2019-05-25T21:56:09.188Z,99.90
2019-05-25T21:58:39.052Z,99.90
2019-05-25T22:01:08.604Z,99.90
2019-05-25T22:03:38.161Z,99.90
2019-05-25T22:06:21.463Z,99.90
2019-05-25T22:08:38.841Z,99.90
2019-05-25T22:11:08.328Z,99.90
2019-05-25T22:13:40.782Z,99.90
2019-05-25T22:16:10.551Z,99.90
2019-05-25T22:18:40.025Z,99.90
2019-05-25T22:21:09.493Z,99.90
2019-05-25T22:23:38.853Z,99.90
2019-05-25T22:26:08.368Z,99.90
2019-05-25T22:28:44.784Z,99.90
2019-05-25T22:31:09.396Z,99.90
2019-05-25T22:33:39.107Z,99.90
2019-05-25T22:36:08.851Z,99.90
2019-05-25T22:38:38.502Z,99.90
2019-05-25T22:41:07.995Z,99.90
2019-05-25T22:43:37.546Z,99.90
2019-05-25T22:46:06.988Z,99.90
2019-05-25T22:48:36.663Z,99.90
2019-05-25T22:51:06.592Z,99.90
2019-05-25T22:53:36.459Z,99.90
2019-05-25T22:56:05.889Z,99.90
2019-05-25T22:58:35.781Z,99.90
2019-05-25T23:01:05.681Z,99.90
2019-05-25T23:03:35.222Z,99.90
2019-05-25T23:06:04.616Z,99.90
2019-05-25T23:08:36.959Z,99.90
2019-05-25T23:11:06.661Z,99.90
2019-05-25T23:13:36.263Z,99.90
2019-05-25T23:16:05.740Z,99.90
2019-05-25T23:18:35.808Z,99.90
2019-05-25T23:21:05.399Z,99.90
2019-05-25T23:23:34.886Z,99.90
2019-05-25T23:26:05.006Z,99.90
2019-05-25T23:28:34.483Z,99.90
2019-05-25T23:31:04.329Z,99.90
2019-05-25T23:33:33.866Z,99.90
2019-05-25T23:36:03.394Z,99.90
2019-05-25T23:38:32.852Z,99.90
2019-05-25T23:41:02.386Z,99.90
2019-05-25T23:43:31.818Z,99.90
2019-05-25T23:46:01.362Z,99.90
2019-05-25T23:48:30.915Z,99.90
2019-05-25T23:51:00.830Z,99.90
2019-05-25T23:53:30.535Z,99.90
2019-05-25T23:56:00.297Z,99.90
2019-05-25T23:58:29.980Z,99.90
